Time;durP1;ratioP1;P1;durP2;ratioP2;P2;SDS_P1;SDS_P2;PMS_P1;PMS_P2;Temp;Humidity;BMP_temperature;BMP_pressure;BME280_temperature;BME280_humidity;BME280_pressure;Samples;Min_cycle;Max_cycle;Signal;HPM_P1;HPM_P2
2022/04/10 00:00:02;;;;;;;14.88;7.30;;;2.50;99.90;;;;;;5004236;28;20061;-76
2022/04/10 00:02:38;;;;;;;14.30;7.72;;;2.50;99.90;;;;;;5023130;28;20634;-75
2022/04/10 00:05:06;;;;;;;17.30;7.82;;;2.50;99.90;;;;;;5022912;28;20217;-75
2022/04/10 00:07:32;;;;;;;19.27;7.00;;;2.50;99.90;;;;;;5021119;28;20155;-75
2022/04/10 00:09:59;;;;;;;15.65;7.72;;;2.50;99.90;;;;;;5020899;28;20100;-75
2022/04/10 00:12:26;;;;;;;16.40;8.02;;;2.50;99.90;;;;;;5021677;28;20116;-76
2022/04/10 00:14:53;;;;;;;21.83;8.40;;;2.50;99.90;;;;;;5035709;28;20071;-75
2022/04/10 00:17:20;;;;;;;19.17;8.23;;;2.50;99.90;;;;;;5022246;28;20061;-75
2022/04/10 00:19:47;;;;;;;19.50;8.82;;;2.50;99.90;;;;;;5032330;28;20052;-74
2022/04/10 00:22:13;;;;;;;20.35;8.60;;;2.50;99.90;;;;;;5036997;28;20498;-75
2022/04/10 00:24:40;;;;;;;17.90;7.97;;;2.50;99.90;;;;;;5024563;28;20045;-75
2022/04/10 00:27:07;;;;;;;13.95;6.90;;;2.50;99.90;;;;;;5025533;28;20129;-74
2022/04/10 00:29:34;;;;;;;17.98;7.78;;;2.50;99.90;;;;;;5022627;28;20053;-75
2022/04/10 00:32:01;;;;;;;15.60;7.32;;;2.50;99.90;;;;;;5022834;28;20562;-74
2022/04/10 00:34:27;;;;;;;16.33;6.93;;;2.50;99.90;;;;;;5023057;28;20053;-75
2022/04/10 00:36:54;;;;;;;12.57;6.72;;;2.40;99.90;;;;;;5022768;28;20589;-74
2022/04/10 00:39:21;;;;;;;17.42;6.90;;;2.40;99.90;;;;;;4630630;22;20053;-71
2022/04/10 00:41:49;;;;;;;21.55;6.72;;;2.40;99.90;;;;;;5019371;28;20140;-71
2022/04/10 00:44:16;;;;;;;13.57;6.45;;;2.40;99.90;;;;;;5005719;28;20046;-72
2022/04/10 00:46:43;;;;;;;20.67;9.18;;;2.40;99.90;;;;;;5019897;28;20068;-72
2022/04/10 00:49:10;;;;;;;17.65;7.43;;;2.40;99.90;;;;;;4992789;28;20051;-71
2022/04/10 00:51:40;;;;;;;15.85;6.93;;;2.30;99.90;;;;;;4983728;28;20046;-71
2022/04/10 00:54:19;;;;;;;19.80;7.50;;;2.30;99.90;;;;;;5001501;28;20127;-71
2022/04/10 00:56:47;;;;;;;13.32;6.30;;;2.30;99.90;;;;;;4978686;28;20070;-72
2022/04/10 00:59:14;;;;;;;21.90;7.65;;;2.30;99.90;;;;;;5007741;28;20551;-71
2022/04/10 01:01:45;;;;;;;15.68;7.50;;;2.30;99.90;;;;;;4999715;28;20489;-72
2022/04/10 01:04:32;;;;;;;13.32;7.55;;;2.30;99.90;;;;;;5000127;28;20385;-72
2022/04/10 01:07:00;;;;;;;16.08;6.53;;;2.30;99.90;;;;;;5000073;28;20042;-72
2022/04/10 01:09:28;;;;;;;19.00;7.85;;;2.30;99.90;;;;;;4997832;28;20054;-71
2022/04/10 01:11:55;;;;;;;14.00;6.45;;;2.30;99.90;;;;;;4982331;28;20147;-72
2022/04/10 01:14:23;;;;;;;16.63;7.32;;;2.20;99.90;;;;;;4991298;28;20081;-72
2022/04/10 01:16:51;;;;;;;22.23;6.05;;;2.20;99.90;;;;;;4999697;28;20284;-71
2022/04/10 01:19:18;;;;;;;6.82;5.55;;;2.20;99.90;;;;;;4996316;28;20408;-72
2022/04/10 01:21:48;;;;;;;18.75;7.07;;;2.20;99.90;;;;;;4998904;28;20258;-71
2022/04/10 01:24:15;;;;;;;21.80;8.05;;;2.10;99.90;;;;;;4967618;28;20291;-72
2022/04/10 01:26:43;;;;;;;15.55;7.97;;;2.20;99.90;;;;;;4995014;28;20046;-72
2022/04/10 01:29:13;;;;;;;14.80;7.68;;;2.20;99.90;;;;;;5019110;28;20053;-71
2022/04/10 01:31:46;;;;;;;22.35;8.90;;;2.20;99.90;;;;;;5017631;28;20452;-73
2022/04/10 01:34:15;;;;;;;33.38;10.95;;;2.20;99.90;;;;;;4987210;28;20049;-71
2022/04/10 01:36:43;;;;;;;19.05;9.93;;;2.20;99.90;;;;;;4986232;28;20045;-73
2022/04/10 01:39:12;;;;;;;22.73;11.75;;;2.20;99.90;;;;;;4985114;28;20544;-72
2022/04/10 01:41:39;;;;;;;31.70;12.75;;;2.10;99.90;;;;;;4996380;28;20054;-72
2022/04/10 01:44:07;;;;;;;28.00;13.45;;;2.10;99.90;;;;;;5001047;28;20476;-72
2022/04/10 01:46:36;;;;;;;22.17;13.35;;;2.20;99.90;;;;;;4982597;28;20142;-72
2022/04/10 01:49:06;;;;;;;23.58;12.80;;;2.20;99.90;;;;;;4992523;28;20046;-71
2022/04/10 01:51:33;;;;;;;24.67;13.63;;;2.10;99.90;;;;;;5012990;28;20076;-72
2022/04/10 01:54:00;;;;;;;28.20;12.95;;;2.10;99.90;;;;;;4986331;28;20647;-71
2022/04/10 01:56:27;;;;;;;22.17;13.27;;;2.10;99.90;;;;;;5002670;28;20466;-72
2022/04/10 01:58:54;;;;;;;18.50;12.70;;;2.10;99.90;;;;;;5002220;28;20053;-73
2022/04/10 02:01:23;;;;;;;25.55;14.27;;;2.10;99.90;;;;;;5001207;28;20068;-72
2022/04/10 02:03:52;;;;;;;25.90;15.05;;;2.10;99.90;;;;;;5001541;28;20046;-71
2022/04/10 02:06:19;;;;;;;35.85;17.08;;;2.10;99.90;;;;;;5002719;28;20046;-72
2022/04/10 02:08:49;;;;;;;33.13;18.17;;;2.00;99.90;;;;;;5001407;28;20502;-73
2022/04/10 02:11:19;;;;;;;27.45;18.15;;;2.00;99.90;;;;;;5000395;28;20524;-72
2022/04/10 02:13:48;;;;;;;31.70;16.10;;;2.00;99.90;;;;;;5004996;28;20050;-72
2022/04/10 02:16:17;;;;;;;29.90;19.30;;;2.00;99.90;;;;;;4996429;28;20066;-72
2022/04/10 02:18:46;;;;;;;30.77;18.75;;;2.00;99.90;;;;;;4967048;28;20050;-72
2022/04/10 02:21:14;;;;;;;28.75;17.42;;;2.00;99.90;;;;;;5003279;28;20089;-72
2022/04/10 02:23:42;;;;;;;29.30;19.00;;;2.00;99.90;;;;;;5001852;28;20096;-72
2022/04/10 02:26:10;;;;;;;34.58;20.55;;;2.00;99.90;;;;;;5018213;28;20045;-71
2022/04/10 02:28:41;;;;;;;32.35;21.02;;;2.00;99.90;;;;;;5006833;28;20500;-73
2022/04/10 02:31:09;;;;;;;36.60;21.65;;;2.00;99.90;;;;;;5017662;28;20574;-71
2022/04/10 02:33:37;;;;;;;44.28;19.80;;;2.00;99.90;;;;;;5003799;28;20411;-72
2022/04/10 02:36:05;;;;;;;33.10;18.10;;;1.90;99.90;;;;;;5001424;28;20042;-73
2022/04/10 02:38:33;;;;;;;30.58;18.98;;;1.90;99.90;;;;;;4986478;28;20077;-72
2022/04/10 02:41:00;;;;;;;36.55;18.90;;;1.90;99.90;;;;;;4999086;28;20053;-73
2022/04/10 02:43:27;;;;;;;32.97;19.23;;;1.90;99.90;;;;;;4991435;28;20058;-73
2022/04/10 02:45:59;;;;;;;29.65;17.70;;;1.90;99.90;;;;;;5002594;28;20482;-72
2022/04/10 02:48:27;;;;;;;30.75;18.10;;;1.90;99.90;;;;;;5020779;28;20042;-73
2022/04/10 02:50:55;;;;;;;33.72;20.42;;;2.00;99.90;;;;;;5001241;28;20578;-72
2022/04/10 02:53:22;;;;;;;34.80;18.75;;;1.90;99.90;;;;;;4986788;28;20045;-72
2022/04/10 02:55:49;;;;;;;33.92;20.02;;;1.90;99.90;;;;;;5001522;28;20050;-72
2022/04/10 02:58:16;;;;;;;37.20;19.95;;;1.90;99.90;;;;;;5001686;28;20104;-72
2022/04/10 03:00:44;;;;;;;41.10;20.77;;;1.90;99.90;;;;;;5001115;28;20109;-72
2022/04/10 03:03:10;;;;;;;34.25;21.73;;;1.90;99.90;;;;;;5001151;28;20459;-72
2022/04/10 03:05:38;;;;;;;37.30;21.65;;;1.90;99.90;;;;;;5001970;28;20044;-72
2022/04/10 03:08:05;;;;;;;38.58;20.88;;;1.90;99.90;;;;;;5002668;28;20546;-71
2022/04/10 03:10:32;;;;;;;39.70;22.77;;;1.90;99.90;;;;;;5000797;28;20038;-71
2022/04/10 03:12:59;;;;;;;35.50;19.83;;;1.90;99.90;;;;;;5003490;28;20077;-72
2022/04/10 03:15:26;;;;;;;38.60;21.70;;;1.90;99.90;;;;;;4997795;28;20054;-71
2022/04/10 03:17:52;;;;;;;42.20;25.85;;;1.90;99.90;;;;;;4966227;28;20054;-71
2022/04/10 03:20:19;;;;;;;39.28;22.75;;;1.80;99.90;;;;;;4981572;28;20058;-71
2022/04/10 03:22:46;;;;;;;38.28;23.45;;;1.90;99.90;;;;;;4984433;28;20486;-71
2022/04/10 03:25:14;;;;;;;32.90;22.45;;;1.90;99.90;;;;;;5017526;28;20041;-71
2022/04/10 03:27:42;;;;;;;38.38;25.52;;;1.90;99.90;;;;;;4977094;28;20084;-72
2022/04/10 03:30:09;;;;;;;46.88;25.27;;;1.90;99.90;;;;;;5002941;28;20057;-72
2022/04/10 03:32:36;;;;;;;35.25;24.80;;;1.80;99.90;;;;;;5006008;28;20054;-71
2022/04/10 03:35:03;;;;;;;46.38;24.67;;;1.90;99.90;;;;;;4981140;28;20406;-71
2022/04/10 03:37:30;;;;;;;39.42;24.50;;;1.80;99.90;;;;;;4965567;28;20489;-72
2022/04/10 03:39:57;;;;;;;45.75;27.90;;;1.80;99.90;;;;;;4981953;28;20042;-71
2022/04/10 03:42:24;;;;;;;42.38;26.85;;;1.90;99.90;;;;;;4985164;28;20051;-72
2022/04/10 03:44:50;;;;;;;51.03;28.45;;;1.80;99.90;;;;;;5000535;28;20508;-72
2022/04/10 03:47:17;;;;;;;51.80;28.83;;;1.80;99.90;;;;;;5000955;28;20135;-72
2022/04/10 03:49:44;;;;;;;51.28;30.88;;;1.90;99.90;;;;;;5027051;28;20218;-72
2022/04/10 03:52:12;;;;;;;48.05;29.02;;;1.80;99.90;;;;;;5006327;28;20396;-72
2022/04/10 03:54:39;;;;;;;57.72;28.15;;;1.80;99.90;;;;;;5001421;28;20619;-72
2022/04/10 03:57:06;;;;;;;48.42;28.10;;;1.90;99.90;;;;;;4999992;28;20121;-71
2022/04/10 03:59:33;;;;;;;40.33;27.60;;;1.90;99.90;;;;;;5013588;28;20274;-72
2022/04/10 04:02:00;;;;;;;47.30;25.70;;;1.80;99.90;;;;;;4979595;28;20054;-72
2022/04/10 04:04:27;;;;;;;40.40;25.35;;;1.80;99.90;;;;;;5017170;28;20050;-73
2022/04/10 04:06:54;;;;;;;45.28;24.98;;;1.90;99.90;;;;;;4984466;28;20054;-72
2022/04/10 04:09:22;;;;;;;50.63;25.40;;;1.90;99.90;;;;;;5000222;28;20557;-72
2022/04/10 04:11:49;;;;;;;39.03;23.77;;;1.90;99.90;;;;;;4999235;28;20272;-72
2022/04/10 04:14:16;;;;;;;55.20;27.00;;;1.90;99.90;;;;;;4986946;28;20104;-72
2022/04/10 04:16:44;;;;;;;35.53;24.15;;;1.80;99.90;;;;;;4999041;28;20459;-72
2022/04/10 04:19:11;;;;;;;40.72;25.02;;;1.80;99.90;;;;;;5015271;28;20045;-72
2022/04/10 04:21:38;;;;;;;36.42;24.05;;;1.80;99.90;;;;;;4984164;28;20041;-72
2022/04/10 04:24:05;;;;;;;48.03;23.30;;;1.80;99.90;;;;;;5000657;28;20045;-73
2022/04/10 04:26:32;;;;;;;43.03;23.45;;;1.80;99.90;;;;;;5002120;28;20363;-72
2022/04/10 04:29:05;;;;;;;48.95;26.08;;;1.80;99.90;;;;;;5016632;28;20095;-72
2022/04/10 04:31:32;;;;;;;36.60;23.33;;;1.80;99.90;;;;;;4983247;28;20279;-72
2022/04/10 04:33:59;;;;;;;44.63;26.60;;;1.80;99.90;;;;;;5017611;28;20480;-72
2022/04/10 04:36:26;;;;;;;44.15;27.48;;;1.80;99.90;;;;;;5015530;28;20057;-73
2022/04/10 04:38:56;;;;;;;49.03;25.95;;;1.80;99.90;;;;;;4981895;28;20046;-73
2022/04/10 04:41:23;;;;;;;45.28;26.40;;;1.80;99.90;;;;;;4980236;28;20540;-72
2022/04/10 04:43:51;;;;;;;45.15;25.92;;;1.70;99.90;;;;;;4997232;28;20077;-72
2022/04/10 04:46:18;;;;;;;50.75;26.95;;;1.70;99.90;;;;;;5001110;28;20042;-72
2022/04/10 04:48:45;;;;;;;44.20;24.35;;;1.80;99.90;;;;;;5004590;28;20037;-74
2022/04/10 04:51:15;;;;;;;50.72;26.55;;;1.80;99.90;;;;;;5003390;28;20050;-73
2022/04/10 04:53:44;;;;;;;41.58;25.52;;;1.80;99.90;;;;;;5016946;28;20046;-73
2022/04/10 04:56:12;;;;;;;56.88;25.88;;;1.80;99.90;;;;;;4990945;28;20132;-72
2022/04/10 04:58:39;;;;;;;43.22;22.88;;;1.80;99.90;;;;;;5004333;28;20049;-72
2022/04/10 05:01:07;;;;;;;43.70;23.83;;;1.80;99.90;;;;;;5020896;28;20045;-72
2022/04/10 05:03:34;;;;;;;49.05;25.55;;;1.70;99.90;;;;;;4987964;28;20042;-73
2022/04/10 05:06:01;;;;;;;47.20;24.52;;;1.80;99.90;;;;;;5020549;28;20550;-71
2022/04/10 05:08:29;;;;;;;45.22;24.10;;;1.80;99.90;;;;;;4987333;28;20080;-72
2022/04/10 05:10:58;;;;;;;44.38;23.27;;;1.90;99.90;;;;;;4999149;28;20053;-72
2022/04/10 05:13:26;;;;;;;42.60;26.08;;;1.90;99.90;;;;;;5021370;28;20467;-72
2022/04/10 05:15:54;;;;;;;41.33;24.58;;;1.90;99.90;;;;;;5000209;28;20157;-72
2022/04/10 05:18:25;;;;;;;45.33;26.90;;;1.90;99.90;;;;;;4984858;28;20437;-71
2022/04/10 05:20:53;;;;;;;40.97;24.95;;;1.90;99.90;;;;;;5003056;28;20431;-72
2022/04/10 05:23:22;;;;;;;45.38;24.92;;;1.80;99.90;;;;;;5019615;28;20311;-72
2022/04/10 05:25:57;;;;;;;42.05;23.73;;;1.90;99.90;;;;;;5002186;28;20129;-72
2022/04/10 05:28:24;;;;;;;39.20;22.95;;;2.00;99.90;;;;;;4987276;28;20077;-72
2022/04/10 05:30:51;;;;;;;38.05;22.42;;;1.90;99.90;;;;;;4991473;28;20057;-73
2022/04/10 05:33:23;;;;;;;40.35;26.80;;;1.90;99.90;;;;;;5000665;28;20468;-71
2022/04/10 05:35:53;;;;;;;50.17;25.90;;;1.90;99.90;;;;;;4983762;28;20125;-71
2022/04/10 05:38:20;;;;;;;42.38;25.75;;;1.90;99.90;;;;;;4999698;28;20495;-73
2022/04/10 05:40:52;;;;;;;48.47;26.05;;;2.00;99.90;;;;;;4999569;28;20046;-71
2022/04/10 05:43:21;;;;;;;44.40;23.75;;;2.00;99.90;;;;;;4996539;28;20270;-72
2022/04/10 05:45:50;;;;;;;38.95;25.23;;;1.90;99.90;;;;;;4987116;28;20040;-71
2022/04/10 05:48:17;;;;;;;52.05;24.45;;;1.90;99.90;;;;;;5001718;28;20064;-71
2022/04/10 05:50:44;;;;;;;37.78;24.13;;;1.90;99.90;;;;;;4986074;28;20397;-72
2022/04/10 05:53:11;;;;;;;40.05;22.45;;;1.90;99.90;;;;;;5003924;28;20046;-73
2022/04/10 05:55:40;;;;;;;38.78;22.63;;;1.90;99.90;;;;;;5003137;28;20064;-72
2022/04/10 05:58:12;;;;;;;42.65;25.65;;;1.90;99.90;;;;;;5002666;28;20140;-72
2022/04/10 06:00:41;;;;;;;41.20;22.25;;;1.90;99.90;;;;;;5001729;28;20060;-73
2022/04/10 06:03:14;;;;;;;35.85;20.83;;;2.00;99.90;;;;;;5019022;28;20228;-72
2022/04/10 06:05:45;;;;;;;38.03;22.77;;;2.10;99.90;;;;;;5003212;28;20118;-71
2022/04/10 06:08:19;;;;;;;46.53;21.50;;;2.10;99.90;;;;;;4986003;28;20042;-72
2022/04/10 06:10:46;;;;;;;30.25;20.10;;;2.20;99.90;;;;;;4985957;28;20034;-71
2022/04/10 06:13:14;;;;;;;34.83;21.75;;;2.20;99.90;;;;;;5022513;28;20052;-72
2022/04/10 06:15:59;;;;;;;34.33;19.67;;;2.30;99.90;;;;;;4988399;28;20037;-72
2022/04/10 06:18:26;;;;;;;42.65;20.67;;;2.30;99.90;;;;;;5002948;28;20049;-72
2022/04/10 06:20:54;;;;;;;32.63;20.10;;;2.30;99.90;;;;;;5002789;28;20052;-72
2022/04/10 06:23:23;;;;;;;38.97;21.17;;;2.30;99.90;;;;;;5002948;28;20077;-72
2022/04/10 06:25:54;;;;;;;29.65;19.35;;;2.30;99.90;;;;;;5000269;28;20376;-72
2022/04/10 06:28:21;;;;;;;39.28;21.88;;;2.40;99.90;;;;;;5007398;28;20046;-73
2022/04/10 06:30:48;;;;;;;36.08;21.88;;;2.40;99.90;;;;;;4985124;28;20319;-72
2022/04/10 06:33:21;;;;;;;45.33;21.70;;;2.40;99.90;;;;;;4986720;28;20148;-72
2022/04/10 06:35:50;;;;;;;43.65;22.70;;;2.40;99.90;;;;;;4986476;28;20095;-73
2022/04/10 06:38:18;;;;;;;34.35;21.75;;;2.40;99.90;;;;;;5002471;28;20136;-71
2022/04/10 06:40:51;;;;;;;32.03;19.52;;;2.40;99.90;;;;;;5055028;22;20804;-77
2022/04/10 06:43:22;;;;;;;35.13;20.67;;;2.40;99.90;;;;;;5026911;28;20262;-77
2022/04/10 06:46:08;;;;;;;39.60;21.10;;;2.40;99.90;;;;;;5024297;28;20539;-76
2022/04/10 06:48:41;;;;;;;38.47;23.65;;;2.40;99.90;;;;;;5022505;28;20037;-77
2022/04/10 06:51:07;;;;;;;32.75;22.35;;;2.40;99.90;;;;;;5017395;28;20038;-76
2022/04/10 06:53:35;;;;;;;41.42;22.30;;;2.40;99.90;;;;;;5004554;28;20050;-77
2022/04/10 06:56:02;;;;;;;40.42;21.73;;;2.50;99.90;;;;;;5004060;28;20099;-77
2022/04/10 06:58:35;;;;;;;33.65;21.85;;;2.50;99.90;;;;;;5003153;28;20042;-77
2022/04/10 07:01:02;;;;;;;30.45;21.27;;;2.50;99.90;;;;;;5001828;28;20037;-76
2022/04/10 07:03:29;;;;;;;32.30;23.13;;;2.50;99.90;;;;;;5002707;28;20598;-77
2022/04/10 07:05:58;;;;;;;47.95;23.52;;;2.50;99.90;;;;;;5003126;28;20042;-76
2022/04/10 07:08:32;;;;;;;39.30;22.30;;;2.50;99.90;;;;;;5003072;28;20054;-76
2022/04/10 07:10:59;;;;;;;31.27;20.55;;;2.50;99.90;;;;;;5002440;28;20104;-76
2022/04/10 07:13:28;;;;;;;39.53;23.52;;;2.50;99.90;;;;;;5009146;28;20040;-77
2022/04/10 07:15:55;;;;;;;29.45;18.58;;;2.50;99.90;;;;;;5012929;28;20626;-77
2022/04/10 07:18:21;;;;;;;33.63;20.33;;;2.60;99.90;;;;;;5016116;28;20045;-76
2022/04/10 07:20:52;;;;;;;32.42;20.98;;;2.50;99.90;;;;;;5002264;28;20065;-76
2022/04/10 07:26:14;;;;;;;31.17;20.00;;;2.60;99.90;;;;;;5005684;28;20613;-76
2022/04/10 07:28:42;;;;;;;36.33;19.25;;;2.60;99.90;;;;;;5007308;28;20127;-77
2022/04/10 07:31:10;;;;;;;29.48;19.42;;;2.60;99.90;;;;;;5005300;28;20056;-77
2022/04/10 07:33:37;;;;;;;35.25;20.48;;;2.70;99.90;;;;;;5002268;28;20045;-76
2022/04/10 07:36:18;;;;;;;34.90;21.75;;;2.80;99.90;;;;;;5001642;28;20408;-76
2022/04/10 07:38:45;;;;;;;31.42;21.48;;;3.10;99.90;;;;;;5001368;28;20060;-76
2022/04/10 07:41:18;;;;;;;28.17;20.67;;;3.30;99.90;;;;;;5001640;28;20475;-76
2022/04/10 07:43:48;;;;;;;49.38;19.42;;;3.30;99.90;;;;;;4992249;28;20050;-77
2022/04/10 07:49:05;;;;;;;36.45;22.40;;;3.60;99.90;;;;;;4994987;28;20045;-77
2022/04/10 07:51:39;;;;;;;31.77;22.27;;;3.60;99.90;;;;;;5012620;28;20046;-76
2022/04/10 07:54:13;;;;;;;31.93;22.60;;;3.60;99.90;;;;;;5002437;28;20089;-77
2022/04/10 07:56:41;;;;;;;22.83;19.67;;;3.80;99.90;;;;;;5001972;28;20045;-76
2022/04/10 07:59:10;;;;;;;29.73;21.60;;;3.90;99.90;;;;;;4999812;28;20134;-77
2022/04/10 08:01:39;;;;;;;31.80;23.02;;;3.80;99.90;;;;;;5001178;28;20538;-76
2022/04/10 08:04:09;;;;;;;28.20;21.35;;;3.80;99.90;;;;;;5001400;28;20423;-76
2022/04/10 08:07:02;;;;;;;31.02;23.02;;;3.70;99.90;;;;;;4981685;28;20046;-77
2022/04/10 08:09:33;;;;;;;25.15;22.17;;;4.00;99.90;;;;;;4983312;28;20053;-77
2022/04/10 08:12:00;;;;;;;28.38;22.58;;;4.60;99.90;;;;;;4995364;28;20148;-77
2022/04/10 08:14:27;;;;;;;25.70;21.63;;;4.60;99.90;;;;;;5012514;28;20177;-77
2022/04/10 08:16:54;;;;;;;27.50;21.08;;;4.50;99.90;;;;;;5006996;28;20722;-77
2022/04/10 08:19:20;;;;;;;29.15;22.20;;;4.70;99.90;;;;;;5001346;28;20131;-77
2022/04/10 08:21:47;;;;;;;24.20;21.63;;;4.70;99.90;;;;;;4991437;28;20136;-77
2022/04/10 08:24:14;;;;;;;28.95;22.98;;;4.60;99.90;;;;;;4983001;28;20491;-77
2022/04/10 08:26:40;;;;;;;24.80;19.58;;;4.50;99.90;;;;;;4999984;28;20050;-76
2022/04/10 08:29:07;;;;;;;26.15;20.00;;;4.40;99.90;;;;;;4999423;28;20069;-77
2022/04/10 08:31:34;;;;;;;24.77;20.92;;;4.40;99.90;;;;;;4999872;28;20045;-77
2022/04/10 08:34:01;;;;;;;36.83;23.17;;;4.60;99.90;;;;;;5002010;28;20038;-77
2022/04/10 08:36:28;;;;;;;31.58;21.25;;;4.80;99.90;;;;;;5001514;28;20141;-77
2022/04/10 08:38:56;;;;;;;22.02;20.15;;;5.20;99.90;;;;;;5001760;28;20143;-78
2022/04/10 08:41:31;;;;;;;26.88;21.58;;;5.30;99.90;;;;;;5000813;28;20138;-78
2022/04/10 08:44:02;;;;;;;24.20;22.00;;;5.50;99.90;;;;;;4991685;28;20049;-77
2022/04/10 08:46:30;;;;;;;26.95;22.10;;;5.70;99.90;;;;;;5003119;28;20072;-77
2022/04/10 08:48:59;;;;;;;23.45;21.52;;;5.70;99.90;;;;;;5007716;28;20214;-77
2022/04/10 08:51:28;;;;;;;25.95;23.40;;;5.70;99.90;;;;;;5006163;28;20041;-77
2022/04/10 08:53:55;;;;;;;25.70;23.20;;;5.70;99.90;;;;;;4999612;28;20050;-77
2022/04/10 08:56:23;;;;;;;23.70;21.55;;;5.50;99.90;;;;;;5000815;28;20125;-77
2022/04/10 08:58:51;;;;;;;23.35;21.15;;;5.50;99.90;;;;;;4999915;28;20061;-77
2022/04/10 09:01:19;;;;;;;24.85;22.30;;;5.50;99.90;;;;;;4998037;28;20520;-78
2022/04/10 09:03:47;;;;;;;27.30;22.08;;;5.40;99.90;;;;;;4999485;28;20129;-76
2022/04/10 09:06:14;;;;;;;30.30;23.23;;;5.50;99.90;;;;;;5001212;28;20548;-76
2022/04/10 09:08:42;;;;;;;23.52;21.15;;;5.30;99.90;;;;;;5000662;28;20056;-77
2022/04/10 09:11:10;;;;;;;26.20;21.00;;;5.20;99.90;;;;;;4999030;28;20082;-77
2022/04/10 09:13:43;;;;;;;22.92;20.73;;;5.00;99.90;;;;;;5007998;28;20049;-76
2022/04/10 09:16:14;;;;;;;26.50;20.25;;;4.90;99.90;;;;;;5012596;28;20044;-77
2022/04/10 09:18:49;;;;;;;21.45;19.20;;;4.80;99.90;;;;;;4968989;28;20103;-76
2022/04/10 09:21:18;;;;;;;21.38;19.23;;;4.70;99.90;;;;;;4998433;28;20428;-77
2022/04/10 09:23:56;;;;;;;22.55;18.00;;;4.50;99.90;;;;;;5000417;28;20038;-77
2022/04/10 09:26:22;;;;;;;18.05;16.42;;;4.30;99.90;;;;;;4998517;28;21555;-77
2022/04/10 09:28:51;;;;;;;25.10;14.77;;;4.20;99.90;;;;;;4999947;28;20567;-76
2022/04/10 09:31:25;;;;;;;17.55;14.85;;;4.00;99.90;;;;;;5000753;28;20069;-76
2022/04/10 09:33:52;;;;;;;21.83;13.70;;;4.00;99.90;;;;;;5002067;28;20058;-76
2022/04/10 09:36:36;;;;;;;19.25;12.23;;;4.20;99.90;;;;;;5004100;28;20120;-76
2022/04/10 09:39:29;;;;;;;22.27;12.30;;;4.40;99.90;;;;;;5002852;28;20078;-76
2022/04/10 09:42:06;;;;;;;19.35;14.15;;;4.50;99.90;;;;;;5002930;28;20049;-76
2022/04/10 09:44:38;;;;;;;16.52;14.30;;;4.60;99.90;;;;;;5006728;28;20069;-77
2022/04/10 09:47:06;;;;;;;17.90;14.43;;;4.70;99.90;;;;;;5019711;28;20148;-77
2022/04/10 09:49:34;;;;;;;20.42;13.32;;;4.90;99.90;;;;;;4996313;28;20528;-77
2022/04/10 09:52:10;;;;;;;13.98;12.48;;;4.80;99.90;;;;;;5002973;28;20041;-77
2022/04/10 09:54:44;;;;;;;18.25;14.05;;;4.80;99.90;;;;;;5004177;28;20052;-77
2022/04/10 09:57:17;;;;;;;16.58;13.82;;;4.70;99.90;;;;;;5002840;28;20038;-77
2022/04/10 09:59:46;;;;;;;15.82;14.20;;;4.80;99.90;;;;;;5002212;28;20115;-77
2022/04/10 10:02:21;;;;;;;19.95;13.13;;;4.90;99.90;;;;;;5004525;28;20046;-78
2022/04/10 10:04:48;;;;;;;14.73;12.88;;;5.20;99.90;;;;;;5003101;28;20054;-77
2022/04/10 10:07:17;;;;;;;18.17;14.23;;;5.30;99.90;;;;;;5004488;28;20042;-76
2022/04/10 10:09:46;;;;;;;15.48;13.48;;;5.40;99.90;;;;;;5002891;28;20073;-77
2022/04/10 10:12:14;;;;;;;15.55;13.38;;;5.50;99.90;;;;;;5002829;28;20077;-77
2022/04/10 10:14:41;;;;;;;19.38;16.08;;;5.60;99.90;;;;;;5014021;28;20581;-77
2022/04/10 10:17:09;;;;;;;15.95;14.32;;;5.60;99.90;;;;;;5008633;28;20473;-76
2022/04/10 10:19:39;;;;;;;19.17;15.15;;;5.50;99.90;;;;;;5003364;28;20054;-77
2022/04/10 10:22:09;;;;;;;15.70;14.00;;;5.30;99.90;;;;;;5004908;28;20047;-76
2022/04/10 10:25:07;;;;;;;19.55;14.88;;;5.10;99.90;;;;;;5001404;28;20058;-76
2022/04/10 10:27:52;;;;;;;15.07;13.82;;;5.10;99.90;;;;;;5001945;28;20056;-76
2022/04/10 10:30:43;;;;;;;15.35;13.77;;;5.30;99.90;;;;;;5003131;28;20108;-75
2022/04/10 10:33:12;;;;;;;15.43;14.27;;;5.80;99.90;;;;;;5003713;28;20500;-75
2022/04/10 10:35:42;;;;;;;16.90;15.35;;;6.30;99.90;;;;;;5003692;28;20128;-75
2022/04/10 10:38:25;;;;;;;15.45;14.15;;;6.30;99.90;;;;;;5001037;28;20053;-75
2022/04/10 10:41:13;;;;;;;17.05;15.65;;;6.20;99.90;;;;;;5000401;28;20472;-75
2022/04/10 10:43:40;;;;;;;17.42;16.10;;;6.10;99.90;;;;;;5002972;28;20099;-75
2022/04/10 10:46:32;;;;;;;19.35;17.33;;;6.40;99.90;;;;;;5010877;28;20061;-75
2022/04/10 10:49:16;;;;;;;20.02;18.17;;;6.80;99.90;;;;;;5000329;28;20080;-74
2022/04/10 10:51:45;;;;;;;19.58;18.30;;;7.20;99.90;;;;;;4994082;28;20078;-75
2022/04/10 10:54:15;;;;;;;19.58;18.23;;;7.50;99.90;;;;;;4984660;28;20105;-74
2022/04/10 10:56:43;;;;;;;21.20;19.88;;;8.00;99.90;;;;;;4998944;28;20103;-75
2022/04/10 10:59:27;;;;;;;21.80;20.42;;;8.00;99.90;;;;;;5001701;28;20133;-75
2022/04/10 11:02:10;;;;;;;22.02;20.63;;;7.70;99.90;;;;;;5002798;28;20536;-75
2022/04/10 11:04:55;;;;;;;21.38;20.02;;;7.20;99.90;;;;;;5002009;28;20152;-75
2022/04/10 11:07:27;;;;;;;22.45;21.00;;;7.40;99.90;;;;;;5002832;28;20613;-74
2022/04/10 11:10:01;;;;;;;22.23;20.80;;;7.60;99.90;;;;;;5000884;28;20078;-74
2022/04/10 11:12:37;;;;;;;21.27;19.98;;;7.40;99.90;;;;;;5003736;28;20448;-74
2022/04/10 11:15:28;;;;;;;22.45;21.08;;;7.40;99.90;;;;;;5016377;28;20053;-75
2022/04/10 11:17:55;;;;;;;23.23;21.90;;;7.00;99.90;;;;;;5001486;28;20050;-75
2022/04/10 11:20:23;;;;;;;21.52;20.05;;;7.10;99.90;;;;;;5000815;28;20082;-75
2022/04/10 11:22:53;;;;;;;23.00;21.10;;;7.50;99.90;;;;;;5000071;28;20053;-74
2022/04/10 11:25:29;;;;;;;22.08;20.50;;;7.70;99.90;;;;;;4985131;28;20507;-75
2022/04/10 11:28:10;;;;;;;22.55;21.05;;;7.90;99.90;;;;;;5001284;28;20080;-74
2022/04/10 11:30:39;;;;;;;22.80;21.30;;;8.20;99.90;;;;;;4997629;28;20038;-76
2022/04/10 11:33:07;;;;;;;24.73;23.25;;;8.20;99.90;;;;;;5000642;28;20073;-75
2022/04/10 11:35:42;;;;;;;24.10;22.27;;;8.40;99.90;;;;;;4985269;28;20074;-75
2022/04/10 11:38:12;;;;;;;22.77;21.40;;;8.60;99.90;;;;;;5000692;28;20049;-75
2022/04/10 11:40:41;;;;;;;24.25;22.63;;;8.60;99.90;;;;;;5000601;28;20053;-75
2022/04/10 11:43:08;;;;;;;22.58;20.98;;;8.90;99.90;;;;;;5003126;28;20033;-75
2022/04/10 11:45:35;;;;;;;23.08;21.08;;;9.10;99.90;;;;;;5010291;28;20084;-75
2022/04/10 11:48:07;;;;;;;22.50;20.98;;;8.80;99.90;;;;;;5005097;28;20133;-74
2022/04/10 11:50:35;;;;;;;25.25;23.42;;;8.70;99.90;;;;;;5004560;28;20112;-74
2022/04/10 11:53:03;;;;;;;23.20;21.70;;;8.70;99.90;;;;;;4980834;28;20125;-75
2022/04/10 11:55:45;;;;;;;22.30;20.60;;;8.60;99.90;;;;;;4987488;28;20061;-76
2022/04/10 11:58:19;;;;;;;21.17;19.65;;;8.30;99.90;;;;;;4999770;28;20085;-75
2022/04/10 12:00:53;;;;;;;21.02;19.92;;;8.60;99.90;;;;;;5000367;28;20061;-76
2022/04/10 12:03:22;;;;;;;20.83;19.52;;;9.10;99.90;;;;;;5001135;28;20759;-75
2022/04/10 12:05:50;;;;;;;21.98;20.67;;;9.50;99.90;;;;;;4999993;28;20045;-75
2022/04/10 12:08:19;;;;;;;22.85;21.48;;;9.50;99.90;;;;;;4997944;28;20141;-75
2022/04/10 12:11:11;;;;;;;23.90;22.52;;;9.40;99.90;;;;;;4998083;28;20046;-75
2022/04/10 12:13:38;;;;;;;24.50;23.02;;;8.70;99.90;;;;;;5007006;28;20077;-76
2022/04/10 12:16:13;;;;;;;23.15;21.73;;;8.00;99.90;;;;;;5003007;28;20042;-74
2022/04/10 12:18:49;;;;;;;22.38;20.98;;;7.80;99.90;;;;;;5000548;28;20522;-75
2022/04/10 12:21:20;;;;;;;23.05;21.55;;;7.60;99.90;;;;;;4998865;28;20046;-75
2022/04/10 12:23:57;;;;;;;22.80;21.42;;;7.70;99.90;;;;;;4999799;28;20042;-75
2022/04/10 12:26:24;;;;;;;22.92;21.42;;;7.80;99.90;;;;;;5000533;28;20080;-75
2022/04/10 12:28:51;;;;;;;23.65;21.83;;;7.80;99.90;;;;;;5000168;28;20050;-76
2022/04/10 12:31:22;;;;;;;23.73;22.30;;;7.80;99.90;;;;;;4998000;28;20602;-75
2022/04/10 12:33:49;;;;;;;23.60;21.70;;;8.20;99.90;;;;;;5001791;28;20050;-76
2022/04/10 12:36:21;;;;;;;21.33;19.90;;;8.70;99.90;;;;;;4998651;28;20046;-76
2022/04/10 12:38:52;;;;;;;24.30;22.95;;;8.60;99.90;;;;;;4997726;28;20077;-76
2022/04/10 12:41:31;;;;;;;22.15;20.42;;;8.40;99.90;;;;;;5014879;22;20061;-71
2022/04/10 12:44:04;;;;;;;22.77;21.25;;;8.10;99.90;;;;;;5002133;28;20111;-72
2022/04/10 12:46:33;;;;;;;21.90;20.48;;;7.80;99.90;;;;;;5001222;28;20602;-71
2022/04/10 12:49:12;;;;;;;21.60;20.35;;;7.60;99.90;;;;;;4999948;28;20404;-73
2022/04/10 12:51:55;;;;;;;20.98;19.60;;;7.10;99.90;;;;;;5000405;28;20046;-72
2022/04/10 12:54:41;;;;;;;18.70;17.58;;;6.40;99.90;;;;;;4994682;28;20050;-73
2022/04/10 12:57:11;;;;;;;19.55;18.15;;;6.00;99.90;;;;;;4997665;28;20636;-74